Miami — WDF6958 — position and weather

sailwx.info

Track history (hours):
 
Tides and Currents Weather Stations Pressure Air Temp Water Temp Dewpoint Dewpoint Depression Visibility Wind Speed Wind Dir Waves Ship Positions

Miami

Owner: Kirby Inland Marine LP, Houston, TX. More information available from US FCC via Universal Licensing System and Coast Guard Vessel Documentation Center.

Last reported at 2016-Sep-28 12:34 UTC. Time now 2016-Sep-28 13:43 UTC.
Position N 25°46' W 080°11'.

Length 23 m; draft 4 m.

Type: Pilot. MMSI: 367479630.

Date/timePositionNaut miles runAvg speedWind from/ knotsBaromVisibWave heightAir tempDewpointWater temp
2016-Sep-28 12:34N 25°46' W 080°11'0 0.0
2016-Sep-28 08:34N 25°46' W 080°11'0 0.0
2016-Sep-28 03:34N 25°46' W 080°11'0 0.0
2016-Sep-28 02:34N 25°46' W 080°11'0 0.0
2016-Sep-28 01:34N 25°46' W 080°11'0 0.0
2016-Sep-27 23:34N 25°46' W 080°11'0 0.0
2016-Sep-27 19:34N 25°46' W 080°11'0 0.0
2016-Sep-27 14:34N 25°46' W 080°11'0 0.0
2016-Sep-27 13:34N 25°46' W 080°11'0 0.0
2016-Sep-27 10:34N 25°46' W 080°11'0 0.0
2016-Sep-27 00:34N 25°46' W 080°11'0 0.0
2016-Sep-26 20:33N 25°46' W 080°11'0 0.0
2016-Sep-26 19:34N 25°46' W 080°11'0 0.0
2016-Sep-26 15:33N 25°46' W 080°11'0 0.2
2016-Sep-26 13:34N 25°47' W 080°11'0 0.0
2016-Sep-26 11:34N 25°47' W 080°11'1 0.3
2016-Sep-26 08:34N 25°46' W 080°10'0 0.0
2016-Sep-26 02:33N 25°46' W 080°10'0 0.0
2016-Sep-26 01:34N 25°46' W 080°10'0 0.0
2016-Sep-26 00:34N 25°46' W 080°10'0 0.0
2016-Sep-25 21:34N 25°46' W 080°10'1 0.2
2016-Sep-25 17:33N 25°47' W 080°10'1 0.7
2016-Sep-25 16:34N 25°46' W 080°10'1 0.7
2016-Sep-25 15:34N 25°47' W 080°10'0 0.0
2016-Sep-25 14:34N 25°47' W 080°10'0 0.0
2016-Sep-25 12:34N 25°47' W 080°10'1 0.8
2016-Sep-25 11:34N 25°46' W 080°10'0 0.0
2016-Sep-25 10:34N 25°46' W 080°10'0 0.0
2016-Sep-25 09:33N 25°46' W 080°10'0 0.0
2016-Sep-25 07:34N 25°46' W 080°10'0 0.0
2016-Sep-25 04:33N 25°46' W 080°10'0 0.0
2016-Sep-25 00:34N 25°46' W 080°10'0 0.0
2016-Sep-24 22:34N 25°46' W 080°10'0 0.0
2016-Sep-24 21:34N 25°46' W 080°10'0 0.0
2016-Sep-24 19:34N 25°46' W 080°10'0 0.0
2016-Sep-24 18:34N 25°46' W 080°10'0 0.0
2016-Sep-24 17:34N 25°46' W 080°10'1 0.6
2016-Sep-24 16:34N 25°46' W 080°10'1 0.3
2016-Sep-24 14:34N 25°47' W 080°10'0 0.0
2016-Sep-24 12:33N 25°47' W 080°10'2 0.8
2016-Sep-24 10:13N 25°46' W 080°09'0 0.0
2016-Sep-24 09:32N 25°46' W 080°09'0 0.0
2016-Sep-24 03:20N 25°46' W 080°08'0 0.0
2016-Sep-24 01:06N 25°46' W 080°08'0 0.0
2016-Sep-24 00:10N 25°46' W 080°08'1 0.3
2016-Sep-23 19:34N 25°46' W 080°10'0 0.1
2016-Sep-23 17:34N 25°47' W 080°10'0 0.0
2016-Sep-23 16:34N 25°47' W 080°10'0 0.0
2016-Sep-23 15:34N 25°47' W 080°10'0 0.0
2016-Sep-23 13:34N 25°47' W 080°10'0 0.1
2016-Sep-23 09:33N 25°46' W 080°10'0 0.0
2016-Sep-23 06:34N 25°46' W 080°10'0 0.0
2016-Sep-23 04:34N 25°46' W 080°10'0 0.0
2016-Sep-23 03:33N 25°46' W 080°10'0 0.0
2016-Sep-23 02:34N 25°46' W 080°10'0 0.0
2016-Sep-23 01:34N 25°46' W 080°10'0 0.0
2016-Sep-23 00:34N 25°46' W 080°10'0 0.0
2016-Sep-22 23:34N 25°46' W 080°10'1 0.3
2016-Sep-22 20:33N 25°47' W 080°10'2 0.2
2016-Sep-22 12:31N 25°46' W 080°08'0 0.0
2016-Sep-22 04:33N 25°46' W 080°09'0 0.0
2016-Sep-22 03:32N 25°46' W 080°08'0 0.0
2016-Sep-22 00:31N 25°46' W 080°08'0 0.0
2016-Sep-21 23:33N 25°46' W 080°08'0 0.0
2016-Sep-21 22:32N 25°46' W 080°08'0 0.0
2016-Sep-21 19:34N 25°46' W 080°08'2 0.7
2016-Sep-21 16:34N 25°46' W 080°11'0 0.0
2016-Sep-21 09:34N 25°46' W 080°11'0 0.0
2016-Sep-21 08:33N 25°46' W 080°11'0 0.0
2016-Sep-21 05:33N 25°46' W 080°11'0 0.0
2016-Sep-21 03:34N 25°46' W 080°11'0 0.0
2016-Sep-21 02:33N 25°46' W 080°11'1 0.1
2016-Sep-20 17:33N 25°46' W 080°10'1 0.4
2016-Sep-20 14:23N 25°46' W 080°09'2 2.2
2016-Sep-20 13:33N 25°46' W 080°11'0 0.0
2016-Sep-20 10:33N 25°46' W 080°11'0 0.0
2016-Sep-20 08:33N 25°46' W 080°11'0 0.0
2016-Sep-20 07:33N 25°46' W 080°11'0 0.0
2016-Sep-20 06:33N 25°46' W 080°11'0 0.0
2016-Sep-20 02:33N 25°46' W 080°11'0 0.0
2016-Sep-19 23:33N 25°46' W 080°11'0 0.0
2016-Sep-19 19:33N 25°46' W 080°11'0 0.0
2016-Sep-19 18:33N 25°46' W 080°11'0 0.0
2016-Sep-19 16:33N 25°46' W 080°11'0 0.0
2016-Sep-19 14:33N 25°46' W 080°11'0 0.0
2016-Sep-19 13:33N 25°46' W 080°11'0 0.0
2016-Sep-19 12:33N 25°46' W 080°11'0 0.0
2016-Sep-19 11:33N 25°46' W 080°11'0 0.0
2016-Sep-19 09:33N 25°46' W 080°11'0 0.0
2016-Sep-19 07:33N 25°46' W 080°11'0 0.0
2016-Sep-19 06:33N 25°46' W 080°11'0 0.0
2016-Sep-19 03:33N 25°46' W 080°11'0 0.0
2016-Sep-19 02:33N 25°46' W 080°11'0 0.0
2016-Sep-19 00:33N 25°46' W 080°11'0 0.0
2016-Sep-18 19:33N 25°46' W 080°11'0 0.1
2016-Sep-18 15:33N 25°47' W 080°10'0 0.0
2016-Sep-18 14:33N 25°47' W 080°10'  
Track history (hours):
 
Tides and Currents Weather Stations Pressure Air Temp Water Temp Dewpoint Dewpoint Depression Visibility Wind Speed Wind Dir Waves Ship Positions

Miami

Owner: Kirby Inland Marine LP, Houston, TX. More information available from US FCC via Universal Licensing System and Coast Guard Vessel Documentation Center.

Last reported at 2016-Sep-28 12:34 UTC. Time now 2016-Sep-28 13:43 UTC.
Position N 25°46' W 080°11'.

Length 23 m; draft 4 m.

Type: Pilot. MMSI: 367479630.

Date/timePositionNaut miles runAvg speedWind from/ knotsBaromVisibWave heightAir tempDewpointWater temp
2016-Sep-28 12:34N 25°46' W 080°11'0 0.0
2016-Sep-28 08:34N 25°46' W 080°11'0 0.0
2016-Sep-28 03:34N 25°46' W 080°11'0 0.0
2016-Sep-28 02:34N 25°46' W 080°11'0 0.0
2016-Sep-28 01:34N 25°46' W 080°11'0 0.0
2016-Sep-27 23:34N 25°46' W 080°11'0 0.0
2016-Sep-27 19:34N 25°46' W 080°11'0 0.0
2016-Sep-27 14:34N 25°46' W 080°11'0 0.0
2016-Sep-27 13:34N 25°46' W 080°11'0 0.0
2016-Sep-27 10:34N 25°46' W 080°11'0 0.0
2016-Sep-27 00:34N 25°46' W 080°11'0 0.0
2016-Sep-26 20:33N 25°46' W 080°11'0 0.0
2016-Sep-26 19:34N 25°46' W 080°11'0 0.0
2016-Sep-26 15:33N 25°46' W 080°11'0 0.2
2016-Sep-26 13:34N 25°47' W 080°11'0 0.0
2016-Sep-26 11:34N 25°47' W 080°11'1 0.3
2016-Sep-26 08:34N 25°46' W 080°10'0 0.0
2016-Sep-26 02:33N 25°46' W 080°10'0 0.0
2016-Sep-26 01:34N 25°46' W 080°10'0 0.0
2016-Sep-26 00:34N 25°46' W 080°10'0 0.0
2016-Sep-25 21:34N 25°46' W 080°10'1 0.2
2016-Sep-25 17:33N 25°47' W 080°10'1 0.7
2016-Sep-25 16:34N 25°46' W 080°10'1 0.7
2016-Sep-25 15:34N 25°47' W 080°10'0 0.0
2016-Sep-25 14:34N 25°47' W 080°10'0 0.0
2016-Sep-25 12:34N 25°47' W 080°10'1 0.8
2016-Sep-25 11:34N 25°46' W 080°10'0 0.0
2016-Sep-25 10:34N 25°46' W 080°10'0 0.0
2016-Sep-25 09:33N 25°46' W 080°10'0 0.0
2016-Sep-25 07:34N 25°46' W 080°10'0 0.0
2016-Sep-25 04:33N 25°46' W 080°10'0 0.0
2016-Sep-25 00:34N 25°46' W 080°10'0 0.0
2016-Sep-24 22:34N 25°46' W 080°10'0 0.0
2016-Sep-24 21:34N 25°46' W 080°10'0 0.0
2016-Sep-24 19:34N 25°46' W 080°10'0 0.0
2016-Sep-24 18:34N 25°46' W 080°10'0 0.0
2016-Sep-24 17:34N 25°46' W 080°10'1 0.6
2016-Sep-24 16:34N 25°46' W 080°10'1 0.3
2016-Sep-24 14:34N 25°47' W 080°10'0 0.0
2016-Sep-24 12:33N 25°47' W 080°10'2 0.8
2016-Sep-24 10:13N 25°46' W 080°09'0 0.0
2016-Sep-24 09:32N 25°46' W 080°09'0 0.0
2016-Sep-24 03:20N 25°46' W 080°08'0 0.0
2016-Sep-24 01:06N 25°46' W 080°08'0 0.0
2016-Sep-24 00:10N 25°46' W 080°08'1 0.3
2016-Sep-23 19:34N 25°46' W 080°10'0 0.1
2016-Sep-23 17:34N 25°47' W 080°10'0 0.0
2016-Sep-23 16:34N 25°47' W 080°10'0 0.0
2016-Sep-23 15:34N 25°47' W 080°10'0 0.0
2016-Sep-23 13:34N 25°47' W 080°10'0 0.1
2016-Sep-23 09:33N 25°46' W 080°10'0 0.0
2016-Sep-23 06:34N 25°46' W 080°10'0 0.0
2016-Sep-23 04:34N 25°46' W 080°10'0 0.0
2016-Sep-23 03:33N 25°46' W 080°10'0 0.0
2016-Sep-23 02:34N 25°46' W 080°10'0 0.0
2016-Sep-23 01:34N 25°46' W 080°10'0 0.0
2016-Sep-23 00:34N 25°46' W 080°10'0 0.0
2016-Sep-22 23:34N 25°46' W 080°10'1 0.3
2016-Sep-22 20:33N 25°47' W 080°10'2 0.2
2016-Sep-22 12:31N 25°46' W 080°08'0 0.0
2016-Sep-22 04:33N 25°46' W 080°09'0 0.0
2016-Sep-22 03:32N 25°46' W 080°08'0 0.0
2016-Sep-22 00:31N 25°46' W 080°08'0 0.0
2016-Sep-21 23:33N 25°46' W 080°08'0 0.0
2016-Sep-21 22:32N 25°46' W 080°08'0 0.0
2016-Sep-21 19:34N 25°46' W 080°08'2 0.7
2016-Sep-21 16:34N 25°46' W 080°11'0 0.0
2016-Sep-21 09:34N 25°46' W 080°11'0 0.0
2016-Sep-21 08:33N 25°46' W 080°11'0 0.0
2016-Sep-21 05:33N 25°46' W 080°11'0 0.0
2016-Sep-21 03:34N 25°46' W 080°11'0 0.0
2016-Sep-21 02:33N 25°46' W 080°11'1 0.1
2016-Sep-20 17:33N 25°46' W 080°10'1 0.4
2016-Sep-20 14:23N 25°46' W 080°09'2 2.2
2016-Sep-20 13:33N 25°46' W 080°11'0 0.0
2016-Sep-20 10:33N 25°46' W 080°11'0 0.0
2016-Sep-20 08:33N 25°46' W 080°11'0 0.0
2016-Sep-20 07:33N 25°46' W 080°11'0 0.0
2016-Sep-20 06:33N 25°46' W 080°11'0 0.0
2016-Sep-20 02:33N 25°46' W 080°11'0 0.0
2016-Sep-19 23:33N 25°46' W 080°11'0 0.0
2016-Sep-19 19:33N 25°46' W 080°11'0 0.0
2016-Sep-19 18:33N 25°46' W 080°11'0 0.0
2016-Sep-19 16:33N 25°46' W 080°11'0 0.0
2016-Sep-19 14:33N 25°46' W 080°11'0 0.0
2016-Sep-19 13:33N 25°46' W 080°11'0 0.0
2016-Sep-19 12:33N 25°46' W 080°11'0 0.0
2016-Sep-19 11:33N 25°46' W 080°11'0 0.0
2016-Sep-19 09:33N 25°46' W 080°11'0 0.0
2016-Sep-19 07:33N 25°46' W 080°11'0 0.0
2016-Sep-19 06:33N 25°46' W 080°11'0 0.0
2016-Sep-19 03:33N 25°46' W 080°11'0 0.0
2016-Sep-19 02:33N 25°46' W 080°11'0 0.0
2016-Sep-19 00:33N 25°46' W 080°11'0 0.0
2016-Sep-18 19:33N 25°46' W 080°11'0 0.1
2016-Sep-18 15:33N 25°47' W 080°10'0 0.0
2016-Sep-18 14:33N 25°47' W 080°10'  

Dump ship's entire track history